sensor_id;sensor_type;location;lat;lon;timestamp;temperature;humidity
20315;DHT22;10315;50.958;13.080;2023-03-23T00:09:21;12.20;99.90
20315;DHT22;10315;50.958;13.080;2023-03-23T00:19:25;12.20;99.90
20315;DHT22;10315;50.958;13.080;2023-03-23T00:29:27;12.30;99.90
20315;DHT22;10315;50.958;13.080;2023-03-23T00:39:30;12.20;99.90
20315;DHT22;10315;50.958;13.080;2023-03-23T00:49:32;12.10;99.90
20315;DHT22;10315;50.958;13.080;2023-03-23T00:59:36;12.30;99.90
20315;DHT22;10315;50.958;13.080;2023-03-23T01:09:38;12.10;99.90
20315;DHT22;10315;50.958;13.080;2023-03-23T01:19:41;12.00;99.90
20315;DHT22;10315;50.958;13.080;2023-03-23T01:29:43;12.20;99.90
20315;DHT22;10315;50.958;13.080;2023-03-23T01:39:46;12.30;99.90
20315;DHT22;10315;50.958;13.080;2023-03-23T01:49:48;12.40;99.90
20315;DHT22;10315;50.958;13.080;2023-03-23T01:59:53;12.30;99.90
20315;DHT22;10315;50.958;13.080;2023-03-23T02:09:56;12.30;99.90
20315;DHT22;10315;50.958;13.080;2023-03-23T02:20:17;12.40;99.90
20315;DHT22;10315;50.958;13.080;2023-03-23T02:30:30;12.30;99.90
20315;DHT22;10315;50.958;13.080;2023-03-23T02:40:39;12.30;99.90
20315;DHT22;10315;50.958;13.080;2023-03-23T02:50:44;12.20;99.90
20315;DHT22;10315;50.958;13.080;2023-03-23T03:00:48;12.20;99.90
20315;DHT22;10315;50.958;13.080;2023-03-23T03:10:53;12.20;99.90
20315;DHT22;10315;50.958;13.080;2023-03-23T03:21:00;12.20;99.90
20315;DHT22;10315;50.958;13.080;2023-03-23T03:31:05;12.20;99.90
20315;DHT22;10315;50.958;13.080;2023-03-23T03:41:09;12.40;99.90
20315;DHT22;10315;50.958;13.080;2023-03-23T03:51:11;12.50;99.90
20315;DHT22;10315;50.958;13.080;2023-03-23T04:01:14;12.30;99.90
20315;DHT22;10315;50.958;13.080;2023-03-23T04:11:16;12.40;99.90
20315;DHT22;10315;50.958;13.080;2023-03-23T04:21:19;12.30;99.90
20315;DHT22;10315;50.958;13.080;2023-03-23T04:31:20;12.30;99.90
20315;DHT22;10315;50.958;13.080;2023-03-23T04:41:29;12.30;99.90
20315;DHT22;10315;50.958;13.080;2023-03-23T04:51:31;12.40;99.90
20315;DHT22;10315;50.958;13.080;2023-03-23T05:01:34;12.20;99.90
20315;DHT22;10315;50.958;13.080;2023-03-23T05:11:37;12.20;99.90
20315;DHT22;10315;50.958;13.080;2023-03-23T05:21:40;12.30;99.90
20315;DHT22;10315;50.958;13.080;2023-03-23T05:31:42;12.30;99.90
20315;DHT22;10315;50.958;13.080;2023-03-23T05:41:45;12.50;99.90
20315;DHT22;10315;50.958;13.080;2023-03-23T05:51:47;12.60;99.90
20315;DHT22;10315;50.958;13.080;2023-03-23T06:01:52;12.70;99.90
20315;DHT22;10315;50.958;13.080;2023-03-23T06:11:58;12.70;99.90
20315;DHT22;10315;50.958;13.080;2023-03-23T06:22:01;13.10;99.90
20315;DHT22;10315;50.958;13.080;2023-03-23T06:32:04;13.20;99.90
20315;DHT22;10315;50.958;13.080;2023-03-23T06:42:10;13.00;99.90
20315;DHT22;10315;50.958;13.080;2023-03-23T06:52:12;13.40;99.90
20315;DHT22;10315;50.958;13.080;2023-03-23T07:02:15;13.90;99.90
20315;DHT22;10315;50.958;13.080;2023-03-23T07:12:17;14.60;99.90
20315;DHT22;10315;50.958;13.080;2023-03-23T07:22:20;14.70;99.90
20315;DHT22;10315;50.958;13.080;2023-03-23T07:32:22;14.10;99.90
20315;DHT22;10315;50.958;13.080;2023-03-23T07:42:25;13.90;99.90
20315;DHT22;10315;50.958;13.080;2023-03-23T07:52:26;14.20;99.90
20315;DHT22;10315;50.958;13.080;2023-03-23T08:02:29;14.10;99.90
20315;DHT22;10315;50.958;13.080;2023-03-23T08:12:32;14.10;99.90
20315;DHT22;10315;50.958;13.080;2023-03-23T08:22:35;13.60;99.90
20315;DHT22;10315;50.958;13.080;2023-03-23T08:32:37;12.60;99.90
20315;DHT22;10315;50.958;13.080;2023-03-23T08:42:43;12.50;99.90
20315;DHT22;10315;50.958;13.080;2023-03-23T08:52:45;12.60;99.90
20315;DHT22;10315;50.958;13.080;2023-03-23T09:02:50;12.70;99.90
20315;DHT22;10315;50.958;13.080;2023-03-23T09:12:53;12.60;99.90
20315;DHT22;10315;50.958;13.080;2023-03-23T09:22:57;12.20;99.90
20315;DHT22;10315;50.958;13.080;2023-03-23T09:33:00;12.30;99.90
20315;DHT22;10315;50.958;13.080;2023-03-23T09:43:24;12.30;99.90
20315;DHT22;10315;50.958;13.080;2023-03-23T09:53:32;12.70;99.90
20315;DHT22;10315;50.958;13.080;2023-03-23T10:03:40;13.10;99.90
20315;DHT22;10315;50.958;13.080;2023-03-23T10:13:55;13.30;99.90
20315;DHT22;10315;50.958;13.080;2023-03-23T10:24:02;13.70;99.90
20315;DHT22;10315;50.958;13.080;2023-03-23T10:34:10;13.70;99.90
20315;DHT22;10315;50.958;13.080;2023-03-23T10:44:17;13.70;99.90
20315;DHT22;10315;50.958;13.080;2023-03-23T10:54:27;13.80;99.90
20315;DHT22;10315;50.958;13.080;2023-03-23T11:04:30;13.80;99.90
20315;DHT22;10315;50.958;13.080;2023-03-23T11:14:34;13.90;99.90
20315;DHT22;10315;50.958;13.080;2023-03-23T11:24:43;13.60;99.90
20315;DHT22;10315;50.958;13.080;2023-03-23T11:34:47;13.30;99.90
20315;DHT22;10315;50.958;13.080;2023-03-23T11:44:50;13.00;99.90
20315;DHT22;10315;50.958;13.080;2023-03-23T11:54:56;12.90;99.90
20315;DHT22;10315;50.958;13.080;2023-03-23T12:15:38;13.40;99.90
20315;DHT22;10315;50.958;13.080;2023-03-23T12:26:05;13.30;99.90
20315;DHT22;10315;50.958;13.080;2023-03-23T12:36:16;13.40;99.90
20315;DHT22;10315;50.958;13.080;2023-03-23T12:46:32;13.60;99.90
20315;DHT22;10315;50.958;13.080;2023-03-23T12:56:40;13.60;99.90
20315;DHT22;10315;50.958;13.080;2023-03-23T13:06:46;14.20;99.90
20315;DHT22;10315;50.958;13.080;2023-03-23T13:16:57;14.50;99.90
20315;DHT22;10315;50.958;13.080;2023-03-23T13:27:08;14.20;99.90
20315;DHT22;10315;50.958;13.080;2023-03-23T13:37:21;13.90;99.90
20315;DHT22;10315;50.958;13.080;2023-03-23T13:47:36;14.10;99.90
20315;DHT22;10315;50.958;13.080;2023-03-23T13:57:49;14.60;99.90
20315;DHT22;10315;50.958;13.080;2023-03-23T14:07:57;15.20;99.90
20315;DHT22;10315;50.958;13.080;2023-03-23T14:18:03;14.90;99.90
20315;DHT22;10315;50.958;13.080;2023-03-23T14:28:17;15.00;99.90
20315;DHT22;10315;50.958;13.080;2023-03-23T14:38:22;14.40;99.90
20315;DHT22;10315;50.958;13.080;2023-03-23T14:48:28;14.70;99.90
20315;DHT22;10315;50.958;13.080;2023-03-23T14:58:37;14.30;99.90
20315;DHT22;10315;50.958;13.080;2023-03-23T15:08:41;13.90;99.90
20315;DHT22;10315;50.958;13.080;2023-03-23T15:18:49;13.80;99.90
20315;DHT22;10315;50.958;13.080;2023-03-23T15:29:10;13.70;99.90
20315;DHT22;10315;50.958;13.080;2023-03-23T15:39:12;13.50;99.90
20315;DHT22;10315;50.958;13.080;2023-03-23T15:49:16;13.40;99.90
20315;DHT22;10315;50.958;13.080;2023-03-23T15:59:18;13.40;99.90
20315;DHT22;10315;50.958;13.080;2023-03-23T16:09:21;13.30;99.90
20315;DHT22;10315;50.958;13.080;2023-03-23T16:19:22;13.20;99.90
20315;DHT22;10315;50.958;13.080;2023-03-23T16:29:25;13.10;99.90
20315;DHT22;10315;50.958;13.080;2023-03-23T16:39:27;12.80;99.90
20315;DHT22;10315;50.958;13.080;2023-03-23T16:49:31;12.70;99.90
20315;DHT22;10315;50.958;13.080;2023-03-23T16:59:32;12.60;99.90
20315;DHT22;10315;50.958;13.080;2023-03-23T17:09:35;12.50;99.90
20315;DHT22;10315;50.958;13.080;2023-03-23T17:19:37;12.40;99.90
20315;DHT22;10315;50.958;13.080;2023-03-23T17:29:40;12.10;99.90
20315;DHT22;10315;50.958;13.080;2023-03-23T17:39:41;12.00;99.90
20315;DHT22;10315;50.958;13.080;2023-03-23T17:49:44;11.90;99.90
20315;DHT22;10315;50.958;13.080;2023-03-23T17:59:47;11.60;99.90
20315;DHT22;10315;50.958;13.080;2023-03-23T18:09:50;11.50;99.90
20315;DHT22;10315;50.958;13.080;2023-03-23T18:19:51;11.40;99.90
20315;DHT22;10315;50.958;13.080;2023-03-23T18:29:54;11.40;99.90
20315;DHT22;10315;50.958;13.080;2023-03-23T18:39:56;11.30;99.90
20315;DHT22;10315;50.958;13.080;2023-03-23T18:49:59;11.20;99.90
20315;DHT22;10315;50.958;13.080;2023-03-23T19:00:00;11.20;99.90
20315;DHT22;10315;50.958;13.080;2023-03-23T19:10:06;11.10;99.90
20315;DHT22;10315;50.958;13.080;2023-03-23T19:20:08;10.90;99.90
20315;DHT22;10315;50.958;13.080;2023-03-23T19:30:11;11.00;99.90
20315;DHT22;10315;50.958;13.080;2023-03-23T19:40:13;11.00;99.90
20315;DHT22;10315;50.958;13.080;2023-03-23T19:50:17;11.20;99.90
20315;DHT22;10315;50.958;13.080;2023-03-23T20:00:18;11.50;99.90
20315;DHT22;10315;50.958;13.080;2023-03-23T20:10:22;11.80;99.90
20315;DHT22;10315;50.958;13.080;2023-03-23T20:20:23;11.80;99.90
20315;DHT22;10315;50.958;13.080;2023-03-23T20:30:26;11.80;99.90
20315;DHT22;10315;50.958;13.080;2023-03-23T20:40:28;11.80;99.90
20315;DHT22;10315;50.958;13.080;2023-03-23T20:50:31;11.90;99.90
20315;DHT22;10315;50.958;13.080;2023-03-23T21:00:33;11.70;99.90
20315;DHT22;10315;50.958;13.080;2023-03-23T21:10:36;11.80;99.90
20315;DHT22;10315;50.958;13.080;2023-03-23T21:20:38;11.70;99.90
20315;DHT22;10315;50.958;13.080;2023-03-23T21:30:41;11.70;99.90
20315;DHT22;10315;50.958;13.080;2023-03-23T21:40:44;11.60;99.90
20315;DHT22;10315;50.958;13.080;2023-03-23T21:50:47;11.50;99.90
20315;DHT22;10315;50.958;13.080;2023-03-23T22:00:49;11.40;99.90
20315;DHT22;10315;50.958;13.080;2023-03-23T22:11:00;11.50;99.90
20315;DHT22;10315;50.958;13.080;2023-03-23T22:21:01;11.60;99.90
20315;DHT22;10315;50.958;13.080;2023-03-23T22:31:06;11.60;99.90
20315;DHT22;10315;50.958;13.080;2023-03-23T22:41:14;11.50;99.90
20315;DHT22;10315;50.958;13.080;2023-03-23T22:51:18;11.50;99.90
20315;DHT22;10315;50.958;13.080;2023-03-23T23:01:22;11.50;99.90
20315;DHT22;10315;50.958;13.080;2023-03-23T23:11:27;11.50;99.90
20315;DHT22;10315;50.958;13.080;2023-03-23T23:21:29;11.40;99.90
20315;DHT22;10315;50.958;13.080;2023-03-23T23:31:32;11.40;99.90
20315;DHT22;10315;50.958;13.080;2023-03-23T23:41:34;11.20;99.90
20315;DHT22;10315;50.958;13.080;2023-03-23T23:51:37;11.30;99.90
